sensor_id;sensor_type;location;lat;lon;timestamp;temperature;humidity
10344;DHT22;5217;43.960;10.954;2024-02-21T00:02:26;15.90;90.20
10344;DHT22;5217;43.960;10.954;2024-02-21T00:04:54;15.80;90.10
10344;DHT22;5217;43.960;10.954;2024-02-21T00:07:23;15.80;90.10
10344;DHT22;5217;43.960;10.954;2024-02-21T00:09:51;15.80;90.00
10344;DHT22;5217;43.960;10.954;2024-02-21T00:12:20;15.80;90.00
10344;DHT22;5217;43.960;10.954;2024-02-21T00:14:48;15.80;89.80
10344;DHT22;5217;43.960;10.954;2024-02-21T00:17:16;15.80;89.70
10344;DHT22;5217;43.960;10.954;2024-02-21T00:19:46;15.80;89.80
10344;DHT22;5217;43.960;10.954;2024-02-21T00:22:14;15.80;89.70
10344;DHT22;5217;43.960;10.954;2024-02-21T00:24:43;15.80;89.80
10344;DHT22;5217;43.960;10.954;2024-02-21T00:27:11;15.80;90.00
10344;DHT22;5217;43.960;10.954;2024-02-21T00:29:39;15.70;90.10
10344;DHT22;5217;43.960;10.954;2024-02-21T00:32:08;15.70;90.10
10344;DHT22;5217;43.960;10.954;2024-02-21T00:34:36;15.70;90.00
10344;DHT22;5217;43.960;10.954;2024-02-21T00:37:06;15.70;90.00
10344;DHT22;5217;43.960;10.954;2024-02-21T00:39:35;15.70;90.00
10344;DHT22;5217;43.960;10.954;2024-02-21T00:42:04;15.70;89.90
10344;DHT22;5217;43.960;10.954;2024-02-21T00:44:35;15.70;89.80
10344;DHT22;5217;43.960;10.954;2024-02-21T00:47:03;15.70;89.70
10344;DHT22;5217;43.960;10.954;2024-02-21T00:49:31;15.70;89.70
10344;DHT22;5217;43.960;10.954;2024-02-21T00:52:00;15.60;89.80
10344;DHT22;5217;43.960;10.954;2024-02-21T00:54:30;15.60;89.80
10344;DHT22;5217;43.960;10.954;2024-02-21T00:57:13;15.60;89.50
10344;DHT22;5217;43.960;10.954;2024-02-21T00:59:42;15.60;89.50
10344;DHT22;5217;43.960;10.954;2024-02-21T01:02:10;15.60;89.60
10344;DHT22;5217;43.960;10.954;2024-02-21T01:04:38;15.60;89.80
10344;DHT22;5217;43.960;10.954;2024-02-21T01:07:07;15.50;89.60
10344;DHT22;5217;43.960;10.954;2024-02-21T01:09:37;15.50;89.70
10344;DHT22;5217;43.960;10.954;2024-02-21T01:12:06;15.50;89.80
10344;DHT22;5217;43.960;10.954;2024-02-21T01:14:34;15.50;89.70
10344;DHT22;5217;43.960;10.954;2024-02-21T01:17:03;15.40;89.50
10344;DHT22;5217;43.960;10.954;2024-02-21T01:19:33;15.50;89.40
10344;DHT22;5217;43.960;10.954;2024-02-21T01:22:02;15.50;89.20
10344;DHT22;5217;43.960;10.954;2024-02-21T01:24:30;15.40;88.70
10344;DHT22;5217;43.960;10.954;2024-02-21T01:27:00;15.40;88.40
10344;DHT22;5217;43.960;10.954;2024-02-21T01:29:28;15.40;88.50
10344;DHT22;5217;43.960;10.954;2024-02-21T01:31:57;15.40;88.80
10344;DHT22;5217;43.960;10.954;2024-02-21T01:34:25;15.40;89.10
10344;DHT22;5217;43.960;10.954;2024-02-21T01:36:58;15.40;89.40
10344;DHT22;5217;43.960;10.954;2024-02-21T01:39:31;15.40;89.60
10344;DHT22;5217;43.960;10.954;2024-02-21T01:42:01;15.30;89.30
10344;DHT22;5217;43.960;10.954;2024-02-21T01:44:29;15.30;89.30
10344;DHT22;5217;43.960;10.954;2024-02-21T01:46:58;15.30;89.30
10344;DHT22;5217;43.960;10.954;2024-02-21T01:49:27;15.30;89.20
10344;DHT22;5217;43.960;10.954;2024-02-21T01:51:56;15.30;89.20
10344;DHT22;5217;43.960;10.954;2024-02-21T01:54:25;15.30;89.10
10344;DHT22;5217;43.960;10.954;2024-02-21T01:56:55;15.30;89.10
10344;DHT22;5217;43.960;10.954;2024-02-21T01:59:26;15.30;89.00
10344;DHT22;5217;43.960;10.954;2024-02-21T02:01:55;15.20;89.60
10344;DHT22;5217;43.960;10.954;2024-02-21T02:04:24;15.30;89.00
10344;DHT22;5217;43.960;10.954;2024-02-21T02:06:54;15.20;88.80
10344;DHT22;5217;43.960;10.954;2024-02-21T02:09:24;15.20;88.80
10344;DHT22;5217;43.960;10.954;2024-02-21T02:11:52;15.20;88.70
10344;DHT22;5217;43.960;10.954;2024-02-21T02:14:21;15.20;88.70
10344;DHT22;5217;43.960;10.954;2024-02-21T02:16:50;15.20;88.80
10344;DHT22;5217;43.960;10.954;2024-02-21T02:19:19;15.10;89.80
10344;DHT22;5217;43.960;10.954;2024-02-21T02:21:52;15.10;89.30
10344;DHT22;5217;43.960;10.954;2024-02-21T02:24:25;15.10;89.40
10344;DHT22;5217;43.960;10.954;2024-02-21T02:26:53;15.00;89.30
10344;DHT22;5217;43.960;10.954;2024-02-21T02:29:22;15.00;89.20
10344;DHT22;5217;43.960;10.954;2024-02-21T02:31:50;15.00;89.60
10344;DHT22;5217;43.960;10.954;2024-02-21T02:34:19;14.90;89.50
10344;DHT22;5217;43.960;10.954;2024-02-21T02:36:47;14.90;89.50
10344;DHT22;5217;43.960;10.954;2024-02-21T02:39:16;14.90;89.50
10344;DHT22;5217;43.960;10.954;2024-02-21T02:41:46;14.80;89.50
10344;DHT22;5217;43.960;10.954;2024-02-21T02:44:14;14.80;90.00
10344;DHT22;5217;43.960;10.954;2024-02-21T02:46:45;14.80;89.50
10344;DHT22;5217;43.960;10.954;2024-02-21T02:49:14;14.80;89.70
10344;DHT22;5217;43.960;10.954;2024-02-21T02:51:43;14.70;89.60
10344;DHT22;5217;43.960;10.954;2024-02-21T02:54:12;14.70;89.60
10344;DHT22;5217;43.960;10.954;2024-02-21T02:56:41;14.70;89.60
10344;DHT22;5217;43.960;10.954;2024-02-21T02:59:10;14.70;89.70
10344;DHT22;5217;43.960;10.954;2024-02-21T03:01:39;14.70;89.80
10344;DHT22;5217;43.960;10.954;2024-02-21T03:04:07;14.70;89.70
10344;DHT22;5217;43.960;10.954;2024-02-21T03:06:36;14.60;89.60
10344;DHT22;5217;43.960;10.954;2024-02-21T03:09:04;14.60;89.50
10344;DHT22;5217;43.960;10.954;2024-02-21T03:11:36;14.60;89.70
10344;DHT22;5217;43.960;10.954;2024-02-21T03:14:09;14.60;90.00
10344;DHT22;5217;43.960;10.954;2024-02-21T03:16:38;14.60;90.00
10344;DHT22;5217;43.960;10.954;2024-02-21T03:19:06;14.60;90.00
10344;DHT22;5217;43.960;10.954;2024-02-21T03:21:35;14.60;90.10
10344;DHT22;5217;43.960;10.954;2024-02-21T03:24:04;14.60;90.20
10344;DHT22;5217;43.960;10.954;2024-02-21T03:26:32;14.60;90.20
10344;DHT22;5217;43.960;10.954;2024-02-21T03:29:01;14.60;90.20
10344;DHT22;5217;43.960;10.954;2024-02-21T03:31:31;14.60;90.20
10344;DHT22;5217;43.960;10.954;2024-02-21T03:33:59;14.60;90.30
10344;DHT22;5217;43.960;10.954;2024-02-21T03:36:28;14.60;90.20
10344;DHT22;5217;43.960;10.954;2024-02-21T03:38:56;14.50;90.20
10344;DHT22;5217;43.960;10.954;2024-02-21T03:41:25;14.50;90.20
10344;DHT22;5217;43.960;10.954;2024-02-21T03:43:54;14.50;90.20
10344;DHT22;5217;43.960;10.954;2024-02-21T03:46:24;14.50;90.20
10344;DHT22;5217;43.960;10.954;2024-02-21T03:48:54;14.50;90.20
10344;DHT22;5217;43.960;10.954;2024-02-21T03:51:23;14.50;90.20
10344;DHT22;5217;43.960;10.954;2024-02-21T03:53:52;14.50;90.20
10344;DHT22;5217;43.960;10.954;2024-02-21T03:56:20;14.40;90.20
10344;DHT22;5217;43.960;10.954;2024-02-21T03:58:50;14.40;90.20
10344;DHT22;5217;43.960;10.954;2024-02-21T04:01:19;14.40;90.30
10344;DHT22;5217;43.960;10.954;2024-02-21T04:03:47;14.40;90.10
10344;DHT22;5217;43.960;10.954;2024-02-21T04:06:18;14.40;90.20
10344;DHT22;5217;43.960;10.954;2024-02-21T04:08:47;14.30;90.10
10344;DHT22;5217;43.960;10.954;2024-02-21T04:11:15;14.30;90.10
10344;DHT22;5217;43.960;10.954;2024-02-21T04:13:44;14.30;90.10
10344;DHT22;5217;43.960;10.954;2024-02-21T04:16:16;14.30;90.30
10344;DHT22;5217;43.960;10.954;2024-02-21T04:18:45;14.30;90.40
10344;DHT22;5217;43.960;10.954;2024-02-21T04:21:14;14.30;90.40
10344;DHT22;5217;43.960;10.954;2024-02-21T04:23:46;14.30;90.40
10344;DHT22;5217;43.960;10.954;2024-02-21T04:26:14;14.30;90.40
10344;DHT22;5217;43.960;10.954;2024-02-21T04:28:45;14.30;90.20
10344;DHT22;5217;43.960;10.954;2024-02-21T04:31:14;14.30;90.30
10344;DHT22;5217;43.960;10.954;2024-02-21T04:33:43;14.20;90.70
10344;DHT22;5217;43.960;10.954;2024-02-21T04:36:11;14.30;90.50
10344;DHT22;5217;43.960;10.954;2024-02-21T04:38:40;14.20;90.50
10344;DHT22;5217;43.960;10.954;2024-02-21T04:41:10;14.20;90.40
10344;DHT22;5217;43.960;10.954;2024-02-21T04:43:39;14.20;90.30
10344;DHT22;5217;43.960;10.954;2024-02-21T04:46:08;14.20;90.30
10344;DHT22;5217;43.960;10.954;2024-02-21T04:48:37;14.20;90.30
10344;DHT22;5217;43.960;10.954;2024-02-21T04:51:05;14.10;90.30
10344;DHT22;5217;43.960;10.954;2024-02-21T04:53:34;14.10;90.40
10344;DHT22;5217;43.960;10.954;2024-02-21T04:56:03;14.10;90.40
10344;DHT22;5217;43.960;10.954;2024-02-21T04:58:33;14.10;90.50
10344;DHT22;5217;43.960;10.954;2024-02-21T05:01:05;14.10;90.30
10344;DHT22;5217;43.960;10.954;2024-02-21T05:03:35;14.00;90.10
10344;DHT22;5217;43.960;10.954;2024-02-21T05:06:04;14.00;90.00
10344;DHT22;5217;43.960;10.954;2024-02-21T05:08:33;14.00;90.10
10344;DHT22;5217;43.960;10.954;2024-02-21T05:11:01;14.00;90.20
10344;DHT22;5217;43.960;10.954;2024-02-21T05:13:30;14.00;90.30
10344;DHT22;5217;43.960;10.954;2024-02-21T05:16:00;14.00;90.20
10344;DHT22;5217;43.960;10.954;2024-02-21T05:18:30;13.90;90.30
10344;DHT22;5217;43.960;10.954;2024-02-21T05:20:59;14.00;90.40
10344;DHT22;5217;43.960;10.954;2024-02-21T05:23:28;14.00;90.30
10344;DHT22;5217;43.960;10.954;2024-02-21T05:25:56;13.90;90.20
10344;DHT22;5217;43.960;10.954;2024-02-21T05:28:25;13.90;90.20
10344;DHT22;5217;43.960;10.954;2024-02-21T05:30:54;13.90;90.30
10344;DHT22;5217;43.960;10.954;2024-02-21T05:33:24;13.80;90.10
10344;DHT22;5217;43.960;10.954;2024-02-21T05:35:53;13.80;90.10
10344;DHT22;5217;43.960;10.954;2024-02-21T05:38:21;13.80;90.30
10344;DHT22;5217;43.960;10.954;2024-02-21T05:40:50;13.80;90.30
10344;DHT22;5217;43.960;10.954;2024-02-21T05:43:19;13.70;90.20
10344;DHT22;5217;43.960;10.954;2024-02-21T05:45:47;13.70;90.20
10344;DHT22;5217;43.960;10.954;2024-02-21T05:48:16;13.70;90.30
10344;DHT22;5217;43.960;10.954;2024-02-21T05:50:46;13.70;90.20
10344;DHT22;5217;43.960;10.954;2024-02-21T05:53:14;13.70;90.20
10344;DHT22;5217;43.960;10.954;2024-02-21T05:55:43;13.60;90.20
10344;DHT22;5217;43.960;10.954;2024-02-21T05:58:11;13.60;90.20
10344;DHT22;5217;43.960;10.954;2024-02-21T06:00:40;13.60;90.20
10344;DHT22;5217;43.960;10.954;2024-02-21T06:03:09;13.60;90.20
10344;DHT22;5217;43.960;10.954;2024-02-21T06:05:37;13.60;90.20
10344;DHT22;5217;43.960;10.954;2024-02-21T06:08:07;13.60;90.30
10344;DHT22;5217;43.960;10.954;2024-02-21T06:10:36;13.60;90.20
10344;DHT22;5217;43.960;10.954;2024-02-21T06:13:04;13.50;90.30
10344;DHT22;5217;43.960;10.954;2024-02-21T06:15:33;13.50;90.40
10344;DHT22;5217;43.960;10.954;2024-02-21T06:18:01;13.50;90.30
10344;DHT22;5217;43.960;10.954;2024-02-21T06:20:30;13.50;90.30
10344;DHT22;5217;43.960;10.954;2024-02-21T06:22:58;13.50;90.20
10344;DHT22;5217;43.960;10.954;2024-02-21T06:25:28;13.50;90.30
10344;DHT22;5217;43.960;10.954;2024-02-21T06:27:57;13.50;90.40
10344;DHT22;5217;43.960;10.954;2024-02-21T06:30:25;13.50;90.40
10344;DHT22;5217;43.960;10.954;2024-02-21T06:32:54;13.50;90.50
10344;DHT22;5217;43.960;10.954;2024-02-21T06:35:23;13.50;90.60
10344;DHT22;5217;43.960;10.954;2024-02-21T06:37:52;13.50;90.70
10344;DHT22;5217;43.960;10.954;2024-02-21T06:40:21;13.50;90.70
10344;DHT22;5217;43.960;10.954;2024-02-21T06:42:51;13.40;90.70
10344;DHT22;5217;43.960;10.954;2024-02-21T06:45:20;13.40;90.60
10344;DHT22;5217;43.960;10.954;2024-02-21T06:47:48;13.40;90.60
10344;DHT22;5217;43.960;10.954;2024-02-21T06:50:17;13.40;90.80
10344;DHT22;5217;43.960;10.954;2024-02-21T06:52:45;13.50;91.00
10344;DHT22;5217;43.960;10.954;2024-02-21T06:55:14;13.50;91.00
10344;DHT22;5217;43.960;10.954;2024-02-21T06:57:43;13.50;91.10
10344;DHT22;5217;43.960;10.954;2024-02-21T07:00:14;13.50;91.00
10344;DHT22;5217;43.960;10.954;2024-02-21T07:02:43;13.50;91.00
10344;DHT22;5217;43.960;10.954;2024-02-21T07:05:11;13.50;91.10
10344;DHT22;5217;43.960;10.954;2024-02-21T07:07:40;13.50;91.20
10344;DHT22;5217;43.960;10.954;2024-02-21T07:10:09;13.50;91.30
10344;DHT22;5217;43.960;10.954;2024-02-21T07:12:37;13.50;91.40
10344;DHT22;5217;43.960;10.954;2024-02-21T07:15:09;13.50;91.50
10344;DHT22;5217;43.960;10.954;2024-02-21T07:17:38;13.50;91.50
10344;DHT22;5217;43.960;10.954;2024-02-21T07:20:08;13.50;91.60
10344;DHT22;5217;43.960;10.954;2024-02-21T07:22:36;13.50;91.60
10344;DHT22;5217;43.960;10.954;2024-02-21T07:25:06;13.50;91.70
10344;DHT22;5217;43.960;10.954;2024-02-21T07:27:34;13.50;91.70
10344;DHT22;5217;43.960;10.954;2024-02-21T07:30:05;13.60;91.80
10344;DHT22;5217;43.960;10.954;2024-02-21T07:32:34;13.60;91.80
10344;DHT22;5217;43.960;10.954;2024-02-21T07:35:05;13.60;91.90
10344;DHT22;5217;43.960;10.954;2024-02-21T07:37:37;13.50;91.90
10344;DHT22;5217;43.960;10.954;2024-02-21T07:40:12;13.60;92.00
10344;DHT22;5217;43.960;10.954;2024-02-21T07:42:41;13.60;92.10
10344;DHT22;5217;43.960;10.954;2024-02-21T07:45:12;13.50;92.10
10344;DHT22;5217;43.960;10.954;2024-02-21T07:47:41;13.60;92.20
10344;DHT22;5217;43.960;10.954;2024-02-21T07:50:10;13.60;92.30
10344;DHT22;5217;43.960;10.954;2024-02-21T07:52:39;13.60;92.40
10344;DHT22;5217;43.960;10.954;2024-02-21T07:55:08;13.60;92.30
10344;DHT22;5217;43.960;10.954;2024-02-21T07:57:37;13.60;92.50
10344;DHT22;5217;43.960;10.954;2024-02-21T08:00:07;13.70;92.70
10344;DHT22;5217;43.960;10.954;2024-02-21T08:02:36;13.80;92.80
10344;DHT22;5217;43.960;10.954;2024-02-21T08:05:05;13.80;92.90
10344;DHT22;5217;43.960;10.954;2024-02-21T08:07:35;13.90;92.80
10344;DHT22;5217;43.960;10.954;2024-02-21T08:10:05;13.90;92.70
10344;DHT22;5217;43.960;10.954;2024-02-21T08:12:35;14.00;92.70
10344;DHT22;5217;43.960;10.954;2024-02-21T08:15:05;14.10;92.60
10344;DHT22;5217;43.960;10.954;2024-02-21T08:17:35;14.10;92.70
10344;DHT22;5217;43.960;10.954;2024-02-21T08:20:04;14.20;92.70
10344;DHT22;5217;43.960;10.954;2024-02-21T08:22:33;14.20;92.70
10344;DHT22;5217;43.960;10.954;2024-02-21T08:25:03;14.30;92.70
10344;DHT22;5217;43.960;10.954;2024-02-21T08:27:32;14.30;92.60
10344;DHT22;5217;43.960;10.954;2024-02-21T08:30:01;14.40;92.60
10344;DHT22;5217;43.960;10.954;2024-02-21T08:32:29;14.50;92.50
10344;DHT22;5217;43.960;10.954;2024-02-21T08:34:58;14.50;92.60
10344;DHT22;5217;43.960;10.954;2024-02-21T08:37:27;14.50;92.30
10344;DHT22;5217;43.960;10.954;2024-02-21T08:39:55;14.50;92.80
10344;DHT22;5217;43.960;10.954;2024-02-21T08:42:25;14.50;93.10
10344;DHT22;5217;43.960;10.954;2024-02-21T08:44:54;14.60;93.10
10344;DHT22;5217;43.960;10.954;2024-02-21T08:47:22;14.60;93.10
10344;DHT22;5217;43.960;10.954;2024-02-21T08:49:51;14.60;93.10
10344;DHT22;5217;43.960;10.954;2024-02-21T08:52:19;14.70;93.70
10344;DHT22;5217;43.960;10.954;2024-02-21T08:54:48;14.80;94.10
10344;DHT22;5217;43.960;10.954;2024-02-21T08:57:17;14.80;93.80
10344;DHT22;5217;43.960;10.954;2024-02-21T08:59:47;14.90;94.10
10344;DHT22;5217;43.960;10.954;2024-02-21T09:02:16;14.90;94.40
10344;DHT22;5217;43.960;10.954;2024-02-21T09:04:44;14.90;94.80
10344;DHT22;5217;43.960;10.954;2024-02-21T09:07:13;15.00;94.70
10344;DHT22;5217;43.960;10.954;2024-02-21T09:09:41;15.10;94.00
10344;DHT22;5217;43.960;10.954;2024-02-21T09:12:09;15.10;93.70
10344;DHT22;5217;43.960;10.954;2024-02-21T09:14:38;15.10;93.50
10344;DHT22;5217;43.960;10.954;2024-02-21T09:17:08;15.10;92.80
10344;DHT22;5217;43.960;10.954;2024-02-21T09:19:36;15.20;92.80
10344;DHT22;5217;43.960;10.954;2024-02-21T09:22:05;15.20;92.90
10344;DHT22;5217;43.960;10.954;2024-02-21T09:24:33;15.30;93.00
10344;DHT22;5217;43.960;10.954;2024-02-21T09:27:02;15.30;93.00
10344;DHT22;5217;43.960;10.954;2024-02-21T09:29:30;15.40;93.60
10344;DHT22;5217;43.960;10.954;2024-02-21T09:32:00;15.50;93.80
10344;DHT22;5217;43.960;10.954;2024-02-21T09:34:31;15.50;93.70
10344;DHT22;5217;43.960;10.954;2024-02-21T09:37:00;15.60;93.60
10344;DHT22;5217;43.960;10.954;2024-02-21T09:39:28;15.60;93.70
10344;DHT22;5217;43.960;10.954;2024-02-21T09:41:59;15.70;93.90
10344;DHT22;5217;43.960;10.954;2024-02-21T09:44:36;15.70;94.10
10344;DHT22;5217;43.960;10.954;2024-02-21T09:47:07;15.70;94.10
10344;DHT22;5217;43.960;10.954;2024-02-21T09:49:40;15.80;94.50
10344;DHT22;5217;43.960;10.954;2024-02-21T09:52:12;15.80;94.10
10344;DHT22;5217;43.960;10.954;2024-02-21T09:54:41;15.80;94.30
10344;DHT22;5217;43.960;10.954;2024-02-21T09:57:13;15.90;94.00
10344;DHT22;5217;43.960;10.954;2024-02-21T09:59:41;15.90;93.90
10344;DHT22;5217;43.960;10.954;2024-02-21T10:02:10;16.00;94.20
10344;DHT22;5217;43.960;10.954;2024-02-21T10:04:41;16.00;94.00
10344;DHT22;5217;43.960;10.954;2024-02-21T10:07:10;16.10;94.00
10344;DHT22;5217;43.960;10.954;2024-02-21T10:09:39;16.10;94.40
10344;DHT22;5217;43.960;10.954;2024-02-21T10:12:10;16.20;93.90
10344;DHT22;5217;43.960;10.954;2024-02-21T10:14:42;16.20;94.10
10344;DHT22;5217;43.960;10.954;2024-02-21T10:17:16;16.30;94.10
10344;DHT22;5217;43.960;10.954;2024-02-21T10:19:47;16.30;94.10
10344;DHT22;5217;43.960;10.954;2024-02-21T10:22:17;16.40;93.90
10344;DHT22;5217;43.960;10.954;2024-02-21T10:24:48;16.40;93.50
10344;DHT22;5217;43.960;10.954;2024-02-21T10:27:16;16.40;93.40
10344;DHT22;5217;43.960;10.954;2024-02-21T10:29:49;16.50;93.40
10344;DHT22;5217;43.960;10.954;2024-02-21T10:32:18;16.50;93.50
10344;DHT22;5217;43.960;10.954;2024-02-21T10:34:48;16.50;93.50
10344;DHT22;5217;43.960;10.954;2024-02-21T10:37:21;16.60;93.00
10344;DHT22;5217;43.960;10.954;2024-02-21T10:39:50;16.60;92.90
10344;DHT22;5217;43.960;10.954;2024-02-21T10:42:21;16.60;92.80
10344;DHT22;5217;43.960;10.954;2024-02-21T10:44:51;16.70;92.40
10344;DHT22;5217;43.960;10.954;2024-02-21T10:47:20;16.80;92.30
10344;DHT22;5217;43.960;10.954;2024-02-21T10:50:02;16.80;92.10
10344;DHT22;5217;43.960;10.954;2024-02-21T10:52:40;16.80;91.60
10344;DHT22;5217;43.960;10.954;2024-02-21T10:55:19;16.90;91.70
10344;DHT22;5217;43.960;10.954;2024-02-21T10:57:54;17.00;91.50
10344;DHT22;5217;43.960;10.954;2024-02-21T11:00:23;17.00;90.90
10344;DHT22;5217;43.960;10.954;2024-02-21T11:02:57;17.00;90.40
10344;DHT22;5217;43.960;10.954;2024-02-21T11:05:28;17.10;89.80
10344;DHT22;5217;43.960;10.954;2024-02-21T11:07:57;17.20;89.40
10344;DHT22;5217;43.960;10.954;2024-02-21T11:10:26;17.20;90.10
10344;DHT22;5217;43.960;10.954;2024-02-21T11:13:06;17.30;90.40
10344;DHT22;5217;43.960;10.954;2024-02-21T11:15:37;17.40;90.20
10344;DHT22;5217;43.960;10.954;2024-02-21T11:18:06;17.40;89.40
10344;DHT22;5217;43.960;10.954;2024-02-21T11:20:37;17.50;88.80
10344;DHT22;5217;43.960;10.954;2024-02-21T11:23:05;17.50;88.90
10344;DHT22;5217;43.960;10.954;2024-02-21T11:25:34;17.60;89.50
10344;DHT22;5217;43.960;10.954;2024-02-21T11:28:04;17.70;89.80
10344;DHT22;5217;43.960;10.954;2024-02-21T11:30:36;17.70;90.20
10344;DHT22;5217;43.960;10.954;2024-02-21T11:33:06;17.80;90.30
10344;DHT22;5217;43.960;10.954;2024-02-21T11:35:37;17.90;89.90
10344;DHT22;5217;43.960;10.954;2024-02-21T11:38:10;18.00;89.10
10344;DHT22;5217;43.960;10.954;2024-02-21T11:40:43;18.00;89.10
10344;DHT22;5217;43.960;10.954;2024-02-21T11:43:12;18.10;89.30
10344;DHT22;5217;43.960;10.954;2024-02-21T11:45:41;18.20;89.40
10344;DHT22;5217;43.960;10.954;2024-02-21T11:48:09;18.30;89.40
10344;DHT22;5217;43.960;10.954;2024-02-21T11:50:39;18.30;87.80
10344;DHT22;5217;43.960;10.954;2024-02-21T11:53:08;18.40;87.20
10344;DHT22;5217;43.960;10.954;2024-02-21T11:55:37;18.40;87.20
10344;DHT22;5217;43.960;10.954;2024-02-21T11:58:05;18.50;87.00
10344;DHT22;5217;43.960;10.954;2024-02-21T12:00:34;18.50;85.20
10344;DHT22;5217;43.960;10.954;2024-02-21T12:03:04;18.60;85.10
10344;DHT22;5217;43.960;10.954;2024-02-21T12:05:33;18.60;83.70
10344;DHT22;5217;43.960;10.954;2024-02-21T12:08:04;18.70;83.70
10344;DHT22;5217;43.960;10.954;2024-02-21T12:10:33;18.70;83.70
10344;DHT22;5217;43.960;10.954;2024-02-21T12:13:06;18.80;83.90
10344;DHT22;5217;43.960;10.954;2024-02-21T12:15:35;18.80;84.60
10344;DHT22;5217;43.960;10.954;2024-02-21T12:18:04;18.90;84.50
10344;DHT22;5217;43.960;10.954;2024-02-21T12:20:33;19.00;84.00
10344;DHT22;5217;43.960;10.954;2024-02-21T12:23:09;19.10;84.20
10344;DHT22;5217;43.960;10.954;2024-02-21T12:25:39;19.20;82.80
10344;DHT22;5217;43.960;10.954;2024-02-21T12:28:08;19.30;81.20
10344;DHT22;5217;43.960;10.954;2024-02-21T12:30:37;19.30;80.70
10344;DHT22;5217;43.960;10.954;2024-02-21T12:33:08;19.30;80.20
10344;DHT22;5217;43.960;10.954;2024-02-21T12:35:37;19.40;81.00
10344;DHT22;5217;43.960;10.954;2024-02-21T12:38:07;19.50;80.90
10344;DHT22;5217;43.960;10.954;2024-02-21T12:40:35;19.60;82.30
10344;DHT22;5217;43.960;10.954;2024-02-21T12:43:04;19.80;81.10
10344;DHT22;5217;43.960;10.954;2024-02-21T12:45:33;19.80;79.30
10344;DHT22;5217;43.960;10.954;2024-02-21T12:48:01;19.90;79.40
10344;DHT22;5217;43.960;10.954;2024-02-21T12:50:31;19.90;78.80
10344;DHT22;5217;43.960;10.954;2024-02-21T12:53:00;20.00;79.60
10344;DHT22;5217;43.960;10.954;2024-02-21T12:55:34;20.10;81.90
10344;DHT22;5217;43.960;10.954;2024-02-21T12:58:03;20.10;81.80
10344;DHT22;5217;43.960;10.954;2024-02-21T13:00:34;20.20;81.70
10344;DHT22;5217;43.960;10.954;2024-02-21T13:03:03;20.30;80.60
10344;DHT22;5217;43.960;10.954;2024-02-21T13:05:32;20.30;78.40
10344;DHT22;5217;43.960;10.954;2024-02-21T13:08:01;20.30;79.90
10344;DHT22;5217;43.960;10.954;2024-02-21T13:10:29;20.30;79.80
10344;DHT22;5217;43.960;10.954;2024-02-21T13:12:59;20.40;81.40
10344;DHT22;5217;43.960;10.954;2024-02-21T13:15:28;20.50;82.30
10344;DHT22;5217;43.960;10.954;2024-02-21T13:17:56;20.50;81.60
10344;DHT22;5217;43.960;10.954;2024-02-21T13:20:25;20.60;79.60
10344;DHT22;5217;43.960;10.954;2024-02-21T13:22:55;20.60;77.80
10344;DHT22;5217;43.960;10.954;2024-02-21T13:25:24;20.60;77.60
10344;DHT22;5217;43.960;10.954;2024-02-21T13:27:52;20.70;77.20
10344;DHT22;5217;43.960;10.954;2024-02-21T13:30:22;20.70;77.30
10344;DHT22;5217;43.960;10.954;2024-02-21T13:32:52;20.70;76.00
10344;DHT22;5217;43.960;10.954;2024-02-21T13:35:21;20.80;76.60
10344;DHT22;5217;43.960;10.954;2024-02-21T13:37:50;20.80;76.60
10344;DHT22;5217;43.960;10.954;2024-02-21T13:40:18;20.80;76.90
10344;DHT22;5217;43.960;10.954;2024-02-21T13:42:47;20.80;76.90
10344;DHT22;5217;43.960;10.954;2024-02-21T13:45:16;20.80;74.40
10344;DHT22;5217;43.960;10.954;2024-02-21T13:47:48;20.80;75.60
10344;DHT22;5217;43.960;10.954;2024-02-21T13:50:17;20.80;75.90
10344;DHT22;5217;43.960;10.954;2024-02-21T13:52:47;20.90;77.30
10344;DHT22;5217;43.960;10.954;2024-02-21T13:55:15;21.00;78.40
10344;DHT22;5217;43.960;10.954;2024-02-21T13:57:45;21.00;77.40
10344;DHT22;5217;43.960;10.954;2024-02-21T14:00:14;21.00;77.40
10344;DHT22;5217;43.960;10.954;2024-02-21T14:02:42;21.00;78.30
10344;DHT22;5217;43.960;10.954;2024-02-21T14:05:12;21.00;76.70
10344;DHT22;5217;43.960;10.954;2024-02-21T14:07:41;21.00;77.90
10344;DHT22;5217;43.960;10.954;2024-02-21T14:10:10;20.90;77.90
10344;DHT22;5217;43.960;10.954;2024-02-21T14:12:38;21.00;77.40
10344;DHT22;5217;43.960;10.954;2024-02-21T14:15:07;21.00;77.60
10344;DHT22;5217;43.960;10.954;2024-02-21T14:17:36;21.00;77.70
10344;DHT22;5217;43.960;10.954;2024-02-21T14:20:07;21.00;76.60
10344;DHT22;5217;43.960;10.954;2024-02-21T14:22:39;21.00;76.20
10344;DHT22;5217;43.960;10.954;2024-02-21T14:25:08;21.00;76.20
10344;DHT22;5217;43.960;10.954;2024-02-21T14:27:36;21.00;76.60
10344;DHT22;5217;43.960;10.954;2024-02-21T14:30:06;21.00;75.70
10344;DHT22;5217;43.960;10.954;2024-02-21T14:32:38;21.00;75.90
10344;DHT22;5217;43.960;10.954;2024-02-21T14:35:08;20.90;76.00
10344;DHT22;5217;43.960;10.954;2024-02-21T14:37:38;20.90;76.40
10344;DHT22;5217;43.960;10.954;2024-02-21T14:40:07;20.90;76.40
10344;DHT22;5217;43.960;10.954;2024-02-21T14:42:36;20.90;75.80
10344;DHT22;5217;43.960;10.954;2024-02-21T14:45:05;20.80;76.60
10344;DHT22;5217;43.960;10.954;2024-02-21T14:47:34;20.90;76.50
10344;DHT22;5217;43.960;10.954;2024-02-21T14:50:03;20.90;76.50
10344;DHT22;5217;43.960;10.954;2024-02-21T14:52:32;20.90;76.00
10344;DHT22;5217;43.960;10.954;2024-02-21T14:55:05;20.80;75.00
10344;DHT22;5217;43.960;10.954;2024-02-21T14:57:33;20.80;75.80
10344;DHT22;5217;43.960;10.954;2024-02-21T15:00:05;20.80;77.00
10344;DHT22;5217;43.960;10.954;2024-02-21T15:02:35;20.80;77.10
10344;DHT22;5217;43.960;10.954;2024-02-21T15:05:04;20.70;75.70
10344;DHT22;5217;43.960;10.954;2024-02-21T15:07:33;20.70;76.60
10344;DHT22;5217;43.960;10.954;2024-02-21T15:10:04;20.80;77.00
10344;DHT22;5217;43.960;10.954;2024-02-21T15:12:33;20.70;75.80
10344;DHT22;5217;43.960;10.954;2024-02-21T15:15:01;20.70;76.50
10344;DHT22;5217;43.960;10.954;2024-02-21T15:17:31;20.70;75.40
10344;DHT22;5217;43.960;10.954;2024-02-21T15:20:00;20.70;75.10
10344;DHT22;5217;43.960;10.954;2024-02-21T15:22:32;20.70;75.70
10344;DHT22;5217;43.960;10.954;2024-02-21T15:25:00;20.70;74.90
10344;DHT22;5217;43.960;10.954;2024-02-21T15:27:30;20.60;75.30
10344;DHT22;5217;43.960;10.954;2024-02-21T15:29:58;20.60;75.30
10344;DHT22;5217;43.960;10.954;2024-02-21T15:32:27;20.60;74.30
10344;DHT22;5217;43.960;10.954;2024-02-21T15:34:56;20.50;74.10
10344;DHT22;5217;43.960;10.954;2024-02-21T15:37:24;20.40;73.00
10344;DHT22;5217;43.960;10.954;2024-02-21T15:39:53;20.50;73.80
10344;DHT22;5217;43.960;10.954;2024-02-21T15:42:21;20.40;73.80
10344;DHT22;5217;43.960;10.954;2024-02-21T15:44:51;20.30;72.90